MiSS Danielle — WDG8493 — position and weather

sailwx.info

Track history (hours):
 
Tides and Currents Weather Stations Pressure Air Temp Water Temp Dewpoint Dewpoint Depression Visibility Wind Speed Wind Dir Waves Ship Positions

MiSS Danielle

Owner: Chem Carriers Towing, LLC, Sunshine, LA. More information available from US FCC via Universal Licensing System and Coast Guard Vessel Documentation Center.

Last reported at 2017-Nov-19 07:20 UTC. Time now 2017-Nov-20 12:07 UTC.
Position N 29°33' W 090°26'.

Length 24 m; draft 3 m.

Type: Towing. MMSI: 367578080.

Date/timePositionNaut miles runAvg speedWind from/ knotsBaromVisibWave heightAir tempDewpointWater temp
2017-Nov-19 07:20N 29°33' W 090°26'2 4.9
2017-Nov-19 07:00N 29°33' W 090°28'2 5.0
2017-Nov-19 06:30N 29°34' W 090°31'2 4.9
2017-Nov-19 06:00N 29°34' W 090°34'2 4.9
2017-Nov-19 05:30N 29°35' W 090°36'2 4.6
2017-Nov-19 05:00N 29°35' W 090°39'2 3.8
2017-Nov-19 04:30N 29°36' W 090°41'2 3.3
2017-Nov-19 04:00N 29°36' W 090°43'2 4.8
2017-Nov-19 03:30N 29°34' W 090°43'2 3.6
2017-Nov-19 03:00N 29°33' W 090°45'2 4.6
2017-Nov-19 02:30N 29°32' W 090°47'3 5.6
2017-Nov-19 02:00N 29°32' W 090°51'4 5.3
2017-Nov-19 01:18N 29°33' W 090°55'55 4.0
2017-Nov-18 11:29N 29°51' W 091°54'2 4.6
2017-Nov-18 10:57N 29°50' W 091°57'2 4.6
2017-Nov-18 10:30N 29°50' W 091°60'2 4.3
2017-Nov-18 10:00N 29°49' W 092°02'2 4.4
2017-Nov-18 09:30N 29°48' W 092°04'2 4.9
2017-Nov-18 09:00N 29°47' W 092°07'2 4.6
2017-Nov-18 08:30N 29°47' W 092°09'2 4.2
2017-Nov-18 08:00N 29°47' W 092°12'1 1.3
2017-Nov-18 07:30N 29°47' W 092°13'1 2.1
2017-Nov-18 07:00N 29°48' W 092°14'0 0.4
2017-Nov-18 06:30N 29°48' W 092°14'1 1.5
2017-Nov-18 06:00N 29°48' W 092°15'2 4.5
2017-Nov-18 05:30N 29°49' W 092°17'1 2.6
2017-Nov-18 05:00N 29°50' W 092°18'2 3.9
2017-Nov-18 04:23N 29°51' W 092°21'1 2.9
2017-Nov-18 03:54N 29°52' W 092°22'2 4.1
2017-Nov-18 03:26N 29°53' W 092°23'36 4.1
2017-Nov-17 18:38N 29°56' W 093°05'0 1.7
2017-Nov-17 18:28N 29°56' W 093°05'0 0.4
2017-Nov-17 18:00N 29°56' W 093°05'1 2.6
2017-Nov-17 17:30N 29°56' W 093°07'2 4.3
2017-Nov-17 17:00N 29°56' W 093°09'2 4.3
2017-Nov-17 16:30N 29°58' W 093°11'2 4.5
2017-Nov-17 16:00N 29°59' W 093°13'2 3.9
2017-Nov-17 15:30N 30°01' W 093°14'2 4.1
2017-Nov-17 15:00N 30°02' W 093°16'2 4.3
2017-Nov-17 14:30N 30°04' W 093°16'1 2.9
2017-Nov-17 14:00N 30°05' W 093°18'1 1.5
2017-Nov-17 13:30N 30°06' W 093°18'0 0.6
2017-Nov-17 13:00N 30°06' W 093°18'2 4.4
2017-Nov-17 12:30N 30°05' W 093°20'2 3.5
2017-Nov-17 12:00N 30°04' W 093°22'2 4.2
2017-Nov-17 11:30N 30°04' W 093°24'2 4.4
2017-Nov-17 11:00N 30°04' W 093°27'2 4.2
2017-Nov-17 10:30N 30°04' W 093°29'2 4.4
2017-Nov-17 10:00N 30°04' W 093°32'2 4.5
2017-Nov-17 09:30N 30°04' W 093°34'2 4.5
2017-Nov-17 09:00N 30°03' W 093°37'3 5.0
2017-Nov-17 08:29N 30°04' W 093°40'2 4.7
2017-Nov-17 07:58N 30°03' W 093°43'69 3.8
2017-Nov-16 13:50N 29°30' W 094°52'2 6.3
2017-Nov-16 13:30N 29°32' W 094°54'3 5.8
2017-Nov-16 13:00N 29°34' W 094°55'3 5.6
2017-Nov-16 12:31N 29°36' W 094°57'3 5.6
2017-Nov-16 12:00N 29°39' W 094°58'2 4.4
2017-Nov-16 11:30N 29°41' W 094°59'0 0.1
2017-Nov-16 11:00N 29°41' W 094°59'2 3.4
2017-Nov-16 10:30N 29°42' W 095°01'2 4.5
2017-Nov-16 10:00N 29°44' W 095°02'1 1.6
2017-Nov-16 09:30N 29°44' W 095°03'0 0.0
2017-Nov-16 09:00N 29°44' W 095°03'0 0.8
2017-Nov-16 08:30N 29°44' W 095°03'0 0.2
2017-Nov-16 08:00N 29°44' W 095°03'0 0.1
2017-Nov-16 07:30N 29°44' W 095°03'0 0.0
2017-Nov-16 07:00N 29°44' W 095°03'0 0.0
2017-Nov-16 06:30N 29°44' W 095°03'0 0.0
2017-Nov-16 06:00N 29°44' W 095°03'0 0.0
2017-Nov-16 05:29N 29°44' W 095°03'0 0.0
2017-Nov-16 04:55N 29°44' W 095°03'0 0.0
2017-Nov-16 04:00N 29°44' W 095°03'0 0.0
2017-Nov-16 03:30N 29°44' W 095°03'0 0.0
2017-Nov-16 03:00N 29°44' W 095°03'0 0.0
2017-Nov-16 02:30N 29°44' W 095°03'0 0.0
2017-Nov-16 02:00N 29°44' W 095°03'0 0.0
2017-Nov-16 01:31N 29°44' W 095°03'0 0.0
2017-Nov-16 01:00N 29°44' W 095°03'0 0.0
2017-Nov-16 00:29N 29°44' W 095°03'0 0.0
2017-Nov-16 00:00N 29°44' W 095°03'0 0.0
2017-Nov-15 23:30N 29°44' W 095°03'0 0.0
2017-Nov-15 23:00N 29°44' W 095°03'0 0.0
2017-Nov-15 22:31N 29°44' W 095°03'0 0.0
2017-Nov-15 22:00N 29°44' W 095°03'0 0.0
2017-Nov-15 21:30N 29°44' W 095°03'0 0.0
2017-Nov-15 21:00N 29°44' W 095°03'0 0.0
2017-Nov-15 20:30N 29°44' W 095°03'0 0.0
2017-Nov-15 20:00N 29°44' W 095°03'0 0.0
2017-Nov-15 19:30N 29°44' W 095°03'0 0.0
2017-Nov-15 18:59N 29°44' W 095°03'0 0.0
2017-Nov-15 18:30N 29°44' W 095°03'0 0.0
2017-Nov-15 18:00N 29°44' W 095°03'0 0.0
2017-Nov-15 17:30N 29°44' W 095°03'0 0.0
2017-Nov-15 17:00N 29°44' W 095°03'0 0.0
2017-Nov-15 16:30N 29°44' W 095°03'0 0.0
2017-Nov-15 16:01N 29°44' W 095°03'0 0.0
2017-Nov-15 15:31N 29°44' W 095°03'0 0.0
2017-Nov-15 15:00N 29°44' W 095°03'0 0.0
2017-Nov-15 14:30N 29°44' W 095°03'0 0.0
2017-Nov-15 13:59N 29°44' W 095°03'0 0.0
2017-Nov-15 13:30N 29°44' W 095°03'0 0.0
2017-Nov-15 12:57N 29°44' W 095°03'0 0.0
2017-Nov-15 12:29N 29°44' W 095°03'0 0.0
2017-Nov-15 11:59N 29°44' W 095°03'0 0.0
2017-Nov-15 11:30N 29°44' W 095°03'0 0.0
2017-Nov-15 10:56N 29°44' W 095°03'0 0.0
2017-Nov-15 10:29N 29°44' W 095°03'0 0.0
2017-Nov-15 10:00N 29°44' W 095°03'0 0.0
2017-Nov-15 09:30N 29°44' W 095°03'0 0.0
2017-Nov-15 09:00N 29°44' W 095°03'0 0.0
2017-Nov-15 08:24N 29°44' W 095°03'0 0.0
2017-Nov-15 07:58N 29°44' W 095°03'0 0.0
2017-Nov-15 07:30N 29°44' W 095°03'0 0.0
2017-Nov-15 07:00N 29°44' W 095°03'0 0.0
2017-Nov-15 06:30N 29°44' W 095°03'0 0.0
2017-Nov-15 05:59N 29°44' W 095°03'0 0.0
2017-Nov-15 05:24N 29°44' W 095°03'0 0.0
2017-Nov-15 04:59N 29°44' W 095°03'0 0.0
2017-Nov-15 04:29N 29°44' W 095°03'0 0.0
2017-Nov-15 03:59N 29°44' W 095°03'0 0.0
2017-Nov-15 03:29N 29°44' W 095°03'0 0.0
2017-Nov-15 03:00N 29°44' W 095°03'0 0.0
2017-Nov-15 02:17N 29°44' W 095°03'0 0.2
2017-Nov-15 01:54N 29°44' W 095°03'0 0.6
2017-Nov-15 01:31N 29°44' W 095°03'0 0.0
2017-Nov-15 01:00N 29°44' W 095°03'0 0.0
2017-Nov-15 00:30N 29°44' W 095°03'0 0.0
2017-Nov-15 00:00N 29°44' W 095°03'0 0.0
2017-Nov-14 23:30N 29°44' W 095°03'0 0.0
2017-Nov-14 23:00N 29°44' W 095°03'0 0.0
2017-Nov-14 22:30N 29°44' W 095°03'0 0.0
2017-Nov-14 22:00N 29°44' W 095°03'0 0.0
2017-Nov-14 21:30N 29°44' W 095°03'0 0.0
2017-Nov-14 21:00N 29°44' W 095°03'0 0.0
2017-Nov-14 20:30N 29°44' W 095°03'0 0.0
2017-Nov-14 20:00N 29°44' W 095°03'0 0.0
2017-Nov-14 19:30N 29°44' W 095°03'0 0.0
2017-Nov-14 19:00N 29°44' W 095°03'0 0.0
2017-Nov-14 18:30N 29°44' W 095°03'0 0.0
2017-Nov-14 18:00N 29°44' W 095°03'0 0.0
2017-Nov-14 17:31N 29°44' W 095°03'0 0.0
2017-Nov-14 17:00N 29°44' W 095°03'0 0.0
2017-Nov-14 16:31N 29°44' W 095°03'0 0.0
2017-Nov-14 16:00N 29°44' W 095°03'0 0.0
2017-Nov-14 15:30N 29°44' W 095°03'0 0.0
2017-Nov-14 15:00N 29°44' W 095°03'0 0.0
2017-Nov-14 14:30N 29°44' W 095°03'0 0.0
2017-Nov-14 14:00N 29°44' W 095°03'0 1.0
2017-Nov-14 13:30N 29°44' W 095°03'2 4.8
2017-Nov-14 13:01N 29°46' W 095°05'1 1.3
2017-Nov-14 12:12N 29°47' W 095°06'0 0.1
2017-Nov-14 12:00N 29°47' W 095°06'0 0.0
2017-Nov-14 11:27N 29°47' W 095°06'1 0.6
2017-Nov-14 10:11N 29°46' W 095°06'1 1.5
2017-Nov-14 09:48N 29°47' W 095°06'0 0.0
2017-Nov-14 09:30N 29°47' W 095°06'0 0.0
2017-Nov-14 08:51N 29°47' W 095°06'0 0.0
2017-Nov-14 08:24N 29°47' W 095°06'0 0.0
2017-Nov-14 07:53N 29°47' W 095°06'0 0.0
2017-Nov-14 07:29N 29°47' W 095°06'0 0.0
2017-Nov-14 07:00N 29°47' W 095°06'0 0.0
2017-Nov-14 06:25N 29°47' W 095°06'0 0.0
2017-Nov-14 04:58N 29°47' W 095°06'0 0.0
2017-Nov-14 04:27N 29°47' W 095°06'0 0.0
2017-Nov-14 03:51N 29°47' W 095°06'0 0.0
2017-Nov-14 03:09N 29°47' W 095°06'0 0.0
2017-Nov-14 02:10N 29°47' W 095°06'0 0.0
2017-Nov-14 01:56N 29°47' W 095°06'0 0.0
2017-Nov-14 01:28N 29°47' W 095°06'0 0.0
2017-Nov-13 02:00N 29°47' W 095°06'0 0.0
2017-Nov-13 00:50N 29°47' W 095°06'0 0.0
2017-Nov-12 18:03N 29°47' W 095°06'0 0.0
2017-Nov-12 17:57N 29°47' W 095°06'0 0.0
2017-Nov-12 17:30N 29°47' W 095°06'0 0.0
2017-Nov-12 16:57N 29°47' W 095°06'0 0.0
2017-Nov-12 16:27N 29°47' W 095°06'0 0.0
2017-Nov-12 15:51N 29°47' W 095°06'0 0.1
2017-Nov-12 15:28N 29°47' W 095°06'0 0.0
2017-Nov-12 15:00N 29°47' W 095°06'0 0.0
2017-Nov-12 14:30N 29°47' W 095°06'0 0.0
2017-Nov-12 13:59N 29°47' W 095°06'0 0.0
2017-Nov-12 13:27N 29°47' W 095°06'0 0.0
2017-Nov-12 12:59N 29°47' W 095°06'0 0.0
2017-Nov-12 12:30N 29°47' W 095°06'0 0.0
2017-Nov-12 12:00N 29°47' W 095°06'0 0.0
2017-Nov-12 11:30N 29°47' W 095°06'0 0.0
2017-Nov-12 11:00N 29°47' W 095°06'0 0.0
2017-Nov-12 10:30N 29°47' W 095°06'0 0.0
2017-Nov-12 09:58N 29°47' W 095°06'0 0.0
2017-Nov-12 09:30N 29°47' W 095°06'0 0.0
2017-Nov-12 09:00N 29°47' W 095°06'0 0.0
2017-Nov-12 08:18N 29°47' W 095°06'0 0.0
2017-Nov-12 07:56N 29°47' W 095°06'0 0.0
2017-Nov-12 07:30N 29°47' W 095°06'0 0.0
2017-Nov-12 07:00N 29°47' W 095°06'0 0.0
2017-Nov-12 06:30N 29°47' W 095°06'2 4.8
2017-Nov-12 05:59N 29°45' W 095°04'3 5.6
2017-Nov-12 05:30N 29°44' W 095°01'0 0.1
2017-Nov-12 05:00N 29°44' W 095°01'2 3.3
2017-Nov-12 04:30N 29°44' W 095°03'2 4.6
2017-Nov-12 04:00N 29°46' W 095°05'1 2.1
2017-Nov-12 03:30N 29°46' W 095°06'1 1.3
2017-Nov-12 02:57N 29°47' W 095°06'0 0.0
2017-Nov-12 02:29N 29°47' W 095°06'0 0.0
2017-Nov-12 01:56N 29°47' W 095°06'0 0.0
2017-Nov-12 01:29N 29°47' W 095°06'0 0.0
2017-Nov-12 00:59N 29°47' W 095°06'0 0.0
2017-Nov-12 00:30N 29°47' W 095°06'0 0.0
2017-Nov-12 00:00N 29°47' W 095°06'0 0.0
2017-Nov-11 23:30N 29°47' W 095°06'0 0.0
2017-Nov-11 23:00N 29°47' W 095°06'0 0.0
2017-Nov-11 21:40N 29°47' W 095°06'0 0.1
2017-Nov-11 21:23N 29°47' W 095°06'0 0.0
2017-Nov-11 21:00N 29°47' W 095°06'0 0.0
2017-Nov-11 20:11N 29°47' W 095°06'0 0.0
2017-Nov-11 19:58N 29°47' W 095°06'0 0.0
2017-Nov-11 19:30N 29°47' W 095°06'0 0.0
2017-Nov-11 18:58N 29°47' W 095°06'0 0.0
2017-Nov-11 18:30N 29°47' W 095°06'0 0.0
2017-Nov-11 17:59N 29°47' W 095°06'0 0.0
2017-Nov-11 17:30N 29°47' W 095°06'0 0.0
2017-Nov-11 16:41N 29°47' W 095°06'0 0.0
2017-Nov-11 15:17N 29°47' W 095°06'0 0.0
2017-Nov-11 15:00N 29°47' W 095°06'0 0.0
2017-Nov-11 14:28N 29°47' W 095°06'0 0.0
2017-Nov-11 14:00N 29°47' W 095°06'0 0.0
2017-Nov-11 13:31N 29°47' W 095°06'0 0.0
2017-Nov-11 13:00N 29°47' W 095°06'0 0.0
2017-Nov-11 12:30N 29°47' W 095°06'0 0.0
2017-Nov-11 12:00N 29°47' W 095°06'0 0.0
2017-Nov-11 11:18N 29°47' W 095°06'0 0.0
2017-Nov-11 10:52N 29°47' W 095°06'0 0.0
2017-Nov-11 10:28N 29°47' W 095°06'0 0.0
2017-Nov-11 09:58N 29°47' W 095°06'0 0.0
2017-Nov-11 09:20N 29°47' W 095°06'0 0.0
2017-Nov-11 09:00N 29°47' W 095°06'0 0.0
2017-Nov-11 08:30N 29°47' W 095°06'0 0.0
2017-Nov-11 08:00N 29°47' W 095°06'0 0.0
2017-Nov-11 07:30N 29°47' W 095°06'0 0.0
2017-Nov-11 07:00N 29°47' W 095°06'0 0.0
2017-Nov-11 06:30N 29°47' W 095°06'0 0.0
2017-Nov-11 05:57N 29°47' W 095°06'0 0.0
2017-Nov-11 05:30N 29°47' W 095°06'0 0.0
2017-Nov-11 04:40N 29°47' W 095°06'0 0.0
2017-Nov-11 04:28N 29°47' W 095°06'0 0.0
2017-Nov-11 03:59N 29°47' W 095°06'0 0.0
2017-Nov-11 03:26N 29°47' W 095°06'0 0.0
2017-Nov-11 02:54N 29°47' W 095°06'0 0.0
2017-Nov-11 02:24N 29°47' W 095°06'0 0.0
2017-Nov-11 01:53N 29°47' W 095°06'1 0.3
2017-Nov-10 21:34N 29°47' W 095°05'1 5.7
2017-Nov-10 21:28N 29°46' W 095°05'1 1.6
2017-Nov-10 20:38N 29°47' W 095°06'0 0.0
2017-Nov-10 12:22N 29°47' W 095°06'0 0.0
2017-Nov-10 09:58N 29°47' W 095°06'0 0.0
2017-Nov-10 09:29N 29°47' W 095°06'0 0.0
2017-Nov-10 08:54N 29°47' W 095°06'0 0.0
2017-Nov-10 08:27N 29°47' W 095°06'0 0.0
2017-Nov-10 07:46N 29°47' W 095°06'0 0.0
2017-Nov-10 07:10N 29°47' W 095°06'0 0.0
2017-Nov-10 06:56N 29°47' W 095°06'0 0.0
2017-Nov-10 04:49N 29°47' W 095°06'0 0.0
2017-Nov-10 04:14N 29°47' W 095°06'0 0.0
2017-Nov-10 03:58N 29°47' W 095°06'0 0.0
2017-Nov-09 22:55N 29°47' W 095°06'0 0.0
2017-Nov-09 22:26N 29°47' W 095°06'0 0.1
2017-Nov-09 17:15N 29°46' W 095°06'  
Track history (hours):
 
Tides and Currents Weather Stations Pressure Air Temp Water Temp Dewpoint Dewpoint Depression Visibility Wind Speed Wind Dir Waves Ship Positions

MiSS Danielle

Owner: Chem Carriers Towing, LLC, Sunshine, LA. More information available from US FCC via Universal Licensing System and Coast Guard Vessel Documentation Center.

Last reported at 2017-Nov-19 07:20 UTC. Time now 2017-Nov-20 12:07 UTC.
Position N 29°33' W 090°26'.

Length 24 m; draft 3 m.

Type: Towing. MMSI: 367578080.

Date/timePositionNaut miles runAvg speedWind from/ knotsBaromVisibWave heightAir tempDewpointWater temp
2017-Nov-19 07:20N 29°33' W 090°26'2 4.9
2017-Nov-19 07:00N 29°33' W 090°28'2 5.0
2017-Nov-19 06:30N 29°34' W 090°31'2 4.9
2017-Nov-19 06:00N 29°34' W 090°34'2 4.9
2017-Nov-19 05:30N 29°35' W 090°36'2 4.6
2017-Nov-19 05:00N 29°35' W 090°39'2 3.8
2017-Nov-19 04:30N 29°36' W 090°41'2 3.3
2017-Nov-19 04:00N 29°36' W 090°43'2 4.8
2017-Nov-19 03:30N 29°34' W 090°43'2 3.6
2017-Nov-19 03:00N 29°33' W 090°45'2 4.6
2017-Nov-19 02:30N 29°32' W 090°47'3 5.6
2017-Nov-19 02:00N 29°32' W 090°51'4 5.3
2017-Nov-19 01:18N 29°33' W 090°55'55 4.0
2017-Nov-18 11:29N 29°51' W 091°54'2 4.6
2017-Nov-18 10:57N 29°50' W 091°57'2 4.6
2017-Nov-18 10:30N 29°50' W 091°60'2 4.3
2017-Nov-18 10:00N 29°49' W 092°02'2 4.4
2017-Nov-18 09:30N 29°48' W 092°04'2 4.9
2017-Nov-18 09:00N 29°47' W 092°07'2 4.6
2017-Nov-18 08:30N 29°47' W 092°09'2 4.2
2017-Nov-18 08:00N 29°47' W 092°12'1 1.3
2017-Nov-18 07:30N 29°47' W 092°13'1 2.1
2017-Nov-18 07:00N 29°48' W 092°14'0 0.4
2017-Nov-18 06:30N 29°48' W 092°14'1 1.5
2017-Nov-18 06:00N 29°48' W 092°15'2 4.5
2017-Nov-18 05:30N 29°49' W 092°17'1 2.6
2017-Nov-18 05:00N 29°50' W 092°18'2 3.9
2017-Nov-18 04:23N 29°51' W 092°21'1 2.9
2017-Nov-18 03:54N 29°52' W 092°22'2 4.1
2017-Nov-18 03:26N 29°53' W 092°23'36 4.1
2017-Nov-17 18:38N 29°56' W 093°05'0 1.7
2017-Nov-17 18:28N 29°56' W 093°05'0 0.4
2017-Nov-17 18:00N 29°56' W 093°05'1 2.6
2017-Nov-17 17:30N 29°56' W 093°07'2 4.3
2017-Nov-17 17:00N 29°56' W 093°09'2 4.3
2017-Nov-17 16:30N 29°58' W 093°11'2 4.5
2017-Nov-17 16:00N 29°59' W 093°13'2 3.9
2017-Nov-17 15:30N 30°01' W 093°14'2 4.1
2017-Nov-17 15:00N 30°02' W 093°16'2 4.3
2017-Nov-17 14:30N 30°04' W 093°16'1 2.9
2017-Nov-17 14:00N 30°05' W 093°18'1 1.5
2017-Nov-17 13:30N 30°06' W 093°18'0 0.6
2017-Nov-17 13:00N 30°06' W 093°18'2 4.4
2017-Nov-17 12:30N 30°05' W 093°20'2 3.5
2017-Nov-17 12:00N 30°04' W 093°22'2 4.2
2017-Nov-17 11:30N 30°04' W 093°24'2 4.4
2017-Nov-17 11:00N 30°04' W 093°27'2 4.2
2017-Nov-17 10:30N 30°04' W 093°29'2 4.4
2017-Nov-17 10:00N 30°04' W 093°32'2 4.5
2017-Nov-17 09:30N 30°04' W 093°34'2 4.5
2017-Nov-17 09:00N 30°03' W 093°37'3 5.0
2017-Nov-17 08:29N 30°04' W 093°40'2 4.7
2017-Nov-17 07:58N 30°03' W 093°43'69 3.8
2017-Nov-16 13:50N 29°30' W 094°52'2 6.3
2017-Nov-16 13:30N 29°32' W 094°54'3 5.8
2017-Nov-16 13:00N 29°34' W 094°55'3 5.6
2017-Nov-16 12:31N 29°36' W 094°57'3 5.6
2017-Nov-16 12:00N 29°39' W 094°58'2 4.4
2017-Nov-16 11:30N 29°41' W 094°59'0 0.1
2017-Nov-16 11:00N 29°41' W 094°59'2 3.4
2017-Nov-16 10:30N 29°42' W 095°01'2 4.5
2017-Nov-16 10:00N 29°44' W 095°02'1 1.6
2017-Nov-16 09:30N 29°44' W 095°03'0 0.0
2017-Nov-16 09:00N 29°44' W 095°03'0 0.8
2017-Nov-16 08:30N 29°44' W 095°03'0 0.2
2017-Nov-16 08:00N 29°44' W 095°03'0 0.1
2017-Nov-16 07:30N 29°44' W 095°03'0 0.0
2017-Nov-16 07:00N 29°44' W 095°03'0 0.0
2017-Nov-16 06:30N 29°44' W 095°03'0 0.0
2017-Nov-16 06:00N 29°44' W 095°03'0 0.0
2017-Nov-16 05:29N 29°44' W 095°03'0 0.0
2017-Nov-16 04:55N 29°44' W 095°03'0 0.0
2017-Nov-16 04:00N 29°44' W 095°03'0 0.0
2017-Nov-16 03:30N 29°44' W 095°03'0 0.0
2017-Nov-16 03:00N 29°44' W 095°03'0 0.0
2017-Nov-16 02:30N 29°44' W 095°03'0 0.0
2017-Nov-16 02:00N 29°44' W 095°03'0 0.0
2017-Nov-16 01:31N 29°44' W 095°03'0 0.0
2017-Nov-16 01:00N 29°44' W 095°03'0 0.0
2017-Nov-16 00:29N 29°44' W 095°03'0 0.0
2017-Nov-16 00:00N 29°44' W 095°03'0 0.0
2017-Nov-15 23:30N 29°44' W 095°03'0 0.0
2017-Nov-15 23:00N 29°44' W 095°03'0 0.0
2017-Nov-15 22:31N 29°44' W 095°03'0 0.0
2017-Nov-15 22:00N 29°44' W 095°03'0 0.0
2017-Nov-15 21:30N 29°44' W 095°03'0 0.0
2017-Nov-15 21:00N 29°44' W 095°03'0 0.0
2017-Nov-15 20:30N 29°44' W 095°03'0 0.0
2017-Nov-15 20:00N 29°44' W 095°03'0 0.0
2017-Nov-15 19:30N 29°44' W 095°03'0 0.0
2017-Nov-15 18:59N 29°44' W 095°03'0 0.0
2017-Nov-15 18:30N 29°44' W 095°03'0 0.0
2017-Nov-15 18:00N 29°44' W 095°03'0 0.0
2017-Nov-15 17:30N 29°44' W 095°03'0 0.0
2017-Nov-15 17:00N 29°44' W 095°03'0 0.0
2017-Nov-15 16:30N 29°44' W 095°03'0 0.0
2017-Nov-15 16:01N 29°44' W 095°03'0 0.0
2017-Nov-15 15:31N 29°44' W 095°03'0 0.0
2017-Nov-15 15:00N 29°44' W 095°03'0 0.0
2017-Nov-15 14:30N 29°44' W 095°03'0 0.0
2017-Nov-15 13:59N 29°44' W 095°03'0 0.0
2017-Nov-15 13:30N 29°44' W 095°03'0 0.0
2017-Nov-15 12:57N 29°44' W 095°03'0 0.0
2017-Nov-15 12:29N 29°44' W 095°03'0 0.0
2017-Nov-15 11:59N 29°44' W 095°03'0 0.0
2017-Nov-15 11:30N 29°44' W 095°03'0 0.0
2017-Nov-15 10:56N 29°44' W 095°03'0 0.0
2017-Nov-15 10:29N 29°44' W 095°03'0 0.0
2017-Nov-15 10:00N 29°44' W 095°03'0 0.0
2017-Nov-15 09:30N 29°44' W 095°03'0 0.0
2017-Nov-15 09:00N 29°44' W 095°03'0 0.0
2017-Nov-15 08:24N 29°44' W 095°03'0 0.0
2017-Nov-15 07:58N 29°44' W 095°03'0 0.0
2017-Nov-15 07:30N 29°44' W 095°03'0 0.0
2017-Nov-15 07:00N 29°44' W 095°03'0 0.0
2017-Nov-15 06:30N 29°44' W 095°03'0 0.0
2017-Nov-15 05:59N 29°44' W 095°03'0 0.0
2017-Nov-15 05:24N 29°44' W 095°03'0 0.0
2017-Nov-15 04:59N 29°44' W 095°03'0 0.0
2017-Nov-15 04:29N 29°44' W 095°03'0 0.0
2017-Nov-15 03:59N 29°44' W 095°03'0 0.0
2017-Nov-15 03:29N 29°44' W 095°03'0 0.0
2017-Nov-15 03:00N 29°44' W 095°03'0 0.0
2017-Nov-15 02:17N 29°44' W 095°03'0 0.2
2017-Nov-15 01:54N 29°44' W 095°03'0 0.6
2017-Nov-15 01:31N 29°44' W 095°03'0 0.0
2017-Nov-15 01:00N 29°44' W 095°03'0 0.0
2017-Nov-15 00:30N 29°44' W 095°03'0 0.0
2017-Nov-15 00:00N 29°44' W 095°03'0 0.0
2017-Nov-14 23:30N 29°44' W 095°03'0 0.0
2017-Nov-14 23:00N 29°44' W 095°03'0 0.0
2017-Nov-14 22:30N 29°44' W 095°03'0 0.0
2017-Nov-14 22:00N 29°44' W 095°03'0 0.0
2017-Nov-14 21:30N 29°44' W 095°03'0 0.0
2017-Nov-14 21:00N 29°44' W 095°03'0 0.0
2017-Nov-14 20:30N 29°44' W 095°03'0 0.0
2017-Nov-14 20:00N 29°44' W 095°03'0 0.0
2017-Nov-14 19:30N 29°44' W 095°03'0 0.0
2017-Nov-14 19:00N 29°44' W 095°03'0 0.0
2017-Nov-14 18:30N 29°44' W 095°03'0 0.0
2017-Nov-14 18:00N 29°44' W 095°03'0 0.0
2017-Nov-14 17:31N 29°44' W 095°03'0 0.0
2017-Nov-14 17:00N 29°44' W 095°03'0 0.0
2017-Nov-14 16:31N 29°44' W 095°03'0 0.0
2017-Nov-14 16:00N 29°44' W 095°03'0 0.0
2017-Nov-14 15:30N 29°44' W 095°03'0 0.0
2017-Nov-14 15:00N 29°44' W 095°03'0 0.0
2017-Nov-14 14:30N 29°44' W 095°03'0 0.0
2017-Nov-14 14:00N 29°44' W 095°03'0 1.0
2017-Nov-14 13:30N 29°44' W 095°03'2 4.8
2017-Nov-14 13:01N 29°46' W 095°05'1 1.3
2017-Nov-14 12:12N 29°47' W 095°06'0 0.1
2017-Nov-14 12:00N 29°47' W 095°06'0 0.0
2017-Nov-14 11:27N 29°47' W 095°06'1 0.6
2017-Nov-14 10:11N 29°46' W 095°06'1 1.5
2017-Nov-14 09:48N 29°47' W 095°06'0 0.0
2017-Nov-14 09:30N 29°47' W 095°06'0 0.0
2017-Nov-14 08:51N 29°47' W 095°06'0 0.0
2017-Nov-14 08:24N 29°47' W 095°06'0 0.0
2017-Nov-14 07:53N 29°47' W 095°06'0 0.0
2017-Nov-14 07:29N 29°47' W 095°06'0 0.0
2017-Nov-14 07:00N 29°47' W 095°06'0 0.0
2017-Nov-14 06:25N 29°47' W 095°06'0 0.0
2017-Nov-14 04:58N 29°47' W 095°06'0 0.0
2017-Nov-14 04:27N 29°47' W 095°06'0 0.0
2017-Nov-14 03:51N 29°47' W 095°06'0 0.0
2017-Nov-14 03:09N 29°47' W 095°06'0 0.0
2017-Nov-14 02:10N 29°47' W 095°06'0 0.0
2017-Nov-14 01:56N 29°47' W 095°06'0 0.0
2017-Nov-14 01:28N 29°47' W 095°06'0 0.0
2017-Nov-13 02:00N 29°47' W 095°06'0 0.0
2017-Nov-13 00:50N 29°47' W 095°06'0 0.0
2017-Nov-12 18:03N 29°47' W 095°06'0 0.0
2017-Nov-12 17:57N 29°47' W 095°06'0 0.0
2017-Nov-12 17:30N 29°47' W 095°06'0 0.0
2017-Nov-12 16:57N 29°47' W 095°06'0 0.0
2017-Nov-12 16:27N 29°47' W 095°06'0 0.0
2017-Nov-12 15:51N 29°47' W 095°06'0 0.1
2017-Nov-12 15:28N 29°47' W 095°06'0 0.0
2017-Nov-12 15:00N 29°47' W 095°06'0 0.0
2017-Nov-12 14:30N 29°47' W 095°06'0 0.0
2017-Nov-12 13:59N 29°47' W 095°06'0 0.0
2017-Nov-12 13:27N 29°47' W 095°06'0 0.0
2017-Nov-12 12:59N 29°47' W 095°06'0 0.0
2017-Nov-12 12:30N 29°47' W 095°06'0 0.0
2017-Nov-12 12:00N 29°47' W 095°06'0 0.0
2017-Nov-12 11:30N 29°47' W 095°06'0 0.0
2017-Nov-12 11:00N 29°47' W 095°06'0 0.0
2017-Nov-12 10:30N 29°47' W 095°06'0 0.0
2017-Nov-12 09:58N 29°47' W 095°06'0 0.0
2017-Nov-12 09:30N 29°47' W 095°06'0 0.0
2017-Nov-12 09:00N 29°47' W 095°06'0 0.0
2017-Nov-12 08:18N 29°47' W 095°06'0 0.0
2017-Nov-12 07:56N 29°47' W 095°06'0 0.0
2017-Nov-12 07:30N 29°47' W 095°06'0 0.0
2017-Nov-12 07:00N 29°47' W 095°06'0 0.0
2017-Nov-12 06:30N 29°47' W 095°06'2 4.8
2017-Nov-12 05:59N 29°45' W 095°04'3 5.6
2017-Nov-12 05:30N 29°44' W 095°01'0 0.1
2017-Nov-12 05:00N 29°44' W 095°01'2 3.3
2017-Nov-12 04:30N 29°44' W 095°03'2 4.6
2017-Nov-12 04:00N 29°46' W 095°05'1 2.1
2017-Nov-12 03:30N 29°46' W 095°06'1 1.3
2017-Nov-12 02:57N 29°47' W 095°06'0 0.0
2017-Nov-12 02:29N 29°47' W 095°06'0 0.0
2017-Nov-12 01:56N 29°47' W 095°06'0 0.0
2017-Nov-12 01:29N 29°47' W 095°06'0 0.0
2017-Nov-12 00:59N 29°47' W 095°06'0 0.0
2017-Nov-12 00:30N 29°47' W 095°06'0 0.0
2017-Nov-12 00:00N 29°47' W 095°06'0 0.0
2017-Nov-11 23:30N 29°47' W 095°06'0 0.0
2017-Nov-11 23:00N 29°47' W 095°06'0 0.0
2017-Nov-11 21:40N 29°47' W 095°06'0 0.1
2017-Nov-11 21:23N 29°47' W 095°06'0 0.0
2017-Nov-11 21:00N 29°47' W 095°06'0 0.0
2017-Nov-11 20:11N 29°47' W 095°06'0 0.0
2017-Nov-11 19:58N 29°47' W 095°06'0 0.0
2017-Nov-11 19:30N 29°47' W 095°06'0 0.0
2017-Nov-11 18:58N 29°47' W 095°06'0 0.0
2017-Nov-11 18:30N 29°47' W 095°06'0 0.0
2017-Nov-11 17:59N 29°47' W 095°06'0 0.0
2017-Nov-11 17:30N 29°47' W 095°06'0 0.0
2017-Nov-11 16:41N 29°47' W 095°06'0 0.0
2017-Nov-11 15:17N 29°47' W 095°06'0 0.0
2017-Nov-11 15:00N 29°47' W 095°06'0 0.0
2017-Nov-11 14:28N 29°47' W 095°06'0 0.0
2017-Nov-11 14:00N 29°47' W 095°06'0 0.0
2017-Nov-11 13:31N 29°47' W 095°06'0 0.0
2017-Nov-11 13:00N 29°47' W 095°06'0 0.0
2017-Nov-11 12:30N 29°47' W 095°06'0 0.0
2017-Nov-11 12:00N 29°47' W 095°06'0 0.0
2017-Nov-11 11:18N 29°47' W 095°06'0 0.0
2017-Nov-11 10:52N 29°47' W 095°06'0 0.0
2017-Nov-11 10:28N 29°47' W 095°06'0 0.0
2017-Nov-11 09:58N 29°47' W 095°06'0 0.0
2017-Nov-11 09:20N 29°47' W 095°06'0 0.0
2017-Nov-11 09:00N 29°47' W 095°06'0 0.0
2017-Nov-11 08:30N 29°47' W 095°06'0 0.0
2017-Nov-11 08:00N 29°47' W 095°06'0 0.0
2017-Nov-11 07:30N 29°47' W 095°06'0 0.0
2017-Nov-11 07:00N 29°47' W 095°06'0 0.0
2017-Nov-11 06:30N 29°47' W 095°06'0 0.0
2017-Nov-11 05:57N 29°47' W 095°06'0 0.0
2017-Nov-11 05:30N 29°47' W 095°06'0 0.0
2017-Nov-11 04:40N 29°47' W 095°06'0 0.0
2017-Nov-11 04:28N 29°47' W 095°06'0 0.0
2017-Nov-11 03:59N 29°47' W 095°06'0 0.0
2017-Nov-11 03:26N 29°47' W 095°06'0 0.0
2017-Nov-11 02:54N 29°47' W 095°06'0 0.0
2017-Nov-11 02:24N 29°47' W 095°06'0 0.0
2017-Nov-11 01:53N 29°47' W 095°06'1 0.3
2017-Nov-10 21:34N 29°47' W 095°05'1 5.7
2017-Nov-10 21:28N 29°46' W 095°05'1 1.6
2017-Nov-10 20:38N 29°47' W 095°06'0 0.0
2017-Nov-10 12:22N 29°47' W 095°06'0 0.0
2017-Nov-10 09:58N 29°47' W 095°06'0 0.0
2017-Nov-10 09:29N 29°47' W 095°06'0 0.0
2017-Nov-10 08:54N 29°47' W 095°06'0 0.0
2017-Nov-10 08:27N 29°47' W 095°06'0 0.0
2017-Nov-10 07:46N 29°47' W 095°06'0 0.0
2017-Nov-10 07:10N 29°47' W 095°06'0 0.0
2017-Nov-10 06:56N 29°47' W 095°06'0 0.0
2017-Nov-10 04:49N 29°47' W 095°06'0 0.0
2017-Nov-10 04:14N 29°47' W 095°06'0 0.0
2017-Nov-10 03:58N 29°47' W 095°06'0 0.0
2017-Nov-09 22:55N 29°47' W 095°06'0 0.0
2017-Nov-09 22:26N 29°47' W 095°06'0 0.1
2017-Nov-09 17:15N 29°46' W 095°06'  

Dump ship's entire track history